Time;durP1;ratioP1;P1;durP2;ratioP2;P2;SDS_P1;SDS_P2;PMS_P1;PMS_P2;Temp;Humidity;BMP_temperature;BMP_pressure;BME280_temperature;BME280_humidity;BME280_pressure;Samples;Min_cycle;Max_cycle;Signal;HPM_P1;HPM_P2
2022/03/12 00:01:35;;;;;;;8.40;5.40;;;;;;-10253.80;;;;106361;1285;64795;-36
2022/03/12 00:04:06;;;;;;;7.90;5.00;;;;;;-10129.49;;;;106384;1285;64892;-38
2022/03/12 00:06:34;;;;;;;8.00;5.40;;;;;;-10502.40;;;;106373;1285;64850;-35
2022/03/12 00:09:02;;;;;;;8.30;5.20;;;;;;-10253.80;;;;106382;1285;64950;-38
2022/03/12 00:11:34;;;;;;;9.30;6.10;;;;;;-10378.10;;;;106372;1285;64815;-39
2022/03/12 00:14:07;;;;;;;7.60;5.30;;;;;;-10129.49;;;;106063;1286;64766;-39
2022/03/12 00:16:34;;;;;;;7.90;6.10;;;;;;-10129.49;;;;106102;1285;64909;-32
2022/03/12 00:19:06;;;;;;;8.40;5.40;;;;;;-10378.10;;;;106113;1287;65049;-40
2022/03/12 00:21:35;;;;;;;8.00;5.20;;;;;;-10005.19;;;;106364;1285;64925;-30
2022/03/12 00:24:05;;;;;;;9.00;5.20;;;;;;-10253.80;;;;106376;1284;64917;-30
2022/03/12 00:26:33;;;;;;;8.20;5.40;;;;;;-10253.80;;;;106334;1285;64921;-33
2022/03/12 00:29:00;;;;;;;7.80;5.10;;;;;;-10129.49;;;;106333;1285;64754;-29
2022/03/12 00:31:29;;;;;;;9.50;5.80;;;;;;-10378.10;;;;106340;1285;64780;-29
2022/03/12 00:33:56;;;;;;;8.10;5.50;;;;;;-10253.80;;;;106414;1285;64865;-40
2022/03/12 00:36:23;;;;;;;8.80;5.50;;;;;;-10129.49;;;;106425;1285;64759;-39
2022/03/12 00:38:51;;;;;;;7.80;6.00;;;;;;-10129.49;;;;106142;1287;64773;-30
2022/03/12 00:41:18;;;;;;;7.80;5.30;;;;;;-10253.80;;;;106326;1285;64793;-29
2022/03/12 00:43:45;;;;;;;8.30;5.40;;;;;;-10129.49;;;;106345;1285;64885;-39
2022/03/12 00:46:13;;;;;;;8.80;5.90;;;;;;-10005.19;;;;106094;1285;64797;-37
2022/03/12 00:48:40;;;;;;;8.90;5.80;;;;;;-10253.80;;;;105946;1288;65651;-39
2022/03/12 00:51:09;;;;;;;8.30;5.90;;;;;;-10129.49;;;;106155;1285;64823;-39
2022/03/12 00:53:39;;;;;;;8.70;5.30;;;;;;-10129.49;;;;106372;1285;64890;-38
2022/03/12 00:56:07;;;;;;;7.60;5.10;;;;;;-10253.80;;;;106393;1285;64771;-38
2022/03/12 00:58:35;;;;;;;9.30;5.70;;;;;;-10502.40;;;;106207;1287;64918;-29
2022/03/12 01:01:04;;;;;;;9.00;5.50;;;;;;-10378.10;;;;106371;1285;64796;-29
2022/03/12 01:03:31;;;;;;;9.20;5.60;;;;;;-10129.49;;;;105928;1288;64747;-30
2022/03/12 01:06:01;;;;;;;8.50;5.50;;;;;;-10253.80;;;;106148;1287;64861;-29
2022/03/12 01:08:31;;;;;;;9.20;5.90;;;;;;-10129.49;;;;106355;1285;64969;-30
2022/03/12 01:11:05;;;;;;;9.30;5.40;;;;;;-10253.80;;;;106363;1285;64791;-28
2022/03/12 01:13:32;;;;;;;9.60;5.50;;;;;;-10129.49;;;;106371;1285;66043;-41
2022/03/12 01:16:00;;;;;;;8.30;5.90;;;;;;-10129.49;;;;106353;1285;64893;-39
2022/03/12 01:18:28;;;;;;;10.00;6.10;;;;;;-10129.49;;;;106187;1287;64844;-39
2022/03/12 01:20:55;;;;;;;8.30;5.30;;;;;;-10005.19;;;;106153;1285;64782;-39
2022/03/12 01:23:25;;;;;;;8.70;5.70;;;;;;-10253.80;;;;106389;1285;64927;-39
2022/03/12 01:25:53;;;;;;;8.70;5.90;;;;;;-10005.19;;;;106398;1285;65718;-40
2022/03/12 01:28:21;;;;;;;8.20;5.40;;;;;;-10253.80;;;;106144;1287;64846;-29
2022/03/12 01:30:48;;;;;;;8.20;5.80;;;;;;-10129.49;;;;106157;1287;64776;-29
2022/03/12 01:33:17;;;;;;;8.70;6.10;;;;;;-10129.49;;;;106320;1285;65005;-28
2022/03/12 01:35:44;;;;;;;7.70;5.40;;;;;;-10502.40;;;;106210;1285;64807;-29
2022/03/12 01:38:13;;;;;;;8.20;5.30;;;;;;-10253.80;;;;106188;1287;64903;-28
2022/03/12 01:40:40;;;;;;;9.30;5.80;;;;;;-10129.49;;;;106157;1285;64778;-27
2022/03/12 01:43:07;;;;;;;9.70;5.60;;;;;;-10378.10;;;;106365;1285;65979;-29
2022/03/12 01:45:36;;;;;;;8.10;5.60;;;;;;-10129.49;;;;106152;1287;64908;-29
2022/03/12 01:48:06;;;;;;;9.10;5.70;;;;;;-10129.49;;;;106207;1287;64793;-39
2022/03/12 01:50:36;;;;;;;8.10;5.80;;;;;;-10129.49;;;;106191;1285;65894;-39
2022/03/12 01:53:08;;;;;;;9.00;6.00;;;;;;-10129.49;;;;106167;1287;64789;-29
2022/03/12 01:55:39;;;;;;;8.00;5.50;;;;;;-10129.49;;;;106381;1285;64965;-41
2022/03/12 01:58:08;;;;;;;8.70;5.90;;;;;;-10253.80;;;;106148;1287;64928;-39
2022/03/12 02:00:49;;;;;;;8.00;5.50;;;;;;-10129.49;;;;106400;1285;64753;-44
2022/03/12 02:03:23;;;;;;;9.30;6.20;;;;;;-10005.19;;;;106396;1285;64851;-40
2022/03/12 02:05:51;;;;;;;8.60;5.90;;;;;;-10253.80;;;;106366;1285;64878;-30
2022/03/12 02:08:18;;;;;;;8.70;5.40;;;;;;-10253.80;;;;106126;1287;64751;-31
2022/03/12 02:10:50;;;;;;;8.70;5.90;;;;;;-10253.80;;;;106374;1285;64740;-38
2022/03/12 02:13:17;;;;;;;7.90;5.50;;;;;;-10129.49;;;;106417;1285;64803;-38
2022/03/12 02:15:45;;;;;;;9.10;5.90;;;;;;-10253.80;;;;106107;1286;64798;-38
2022/03/12 02:18:14;;;;;;;9.10;5.70;;;;;;-10253.80;;;;106044;1287;65787;-29
2022/03/12 02:20:41;;;;;;;8.50;5.60;;;;;;-10005.19;;;;106146;1287;64752;-30
2022/03/12 02:23:10;;;;;;;8.60;6.40;;;;;;-10005.19;;;;106054;1288;64896;-30
2022/03/12 02:25:37;;;;;;;8.20;6.10;;;;;;-10129.49;;;;105939;1288;64726;-30
2022/03/12 02:28:19;;;;;;;9.70;5.80;;;;;;-10253.80;;;;106355;1285;64765;-30
2022/03/12 02:30:59;;;;;;;8.30;5.50;;;;;;-10129.49;;;;106184;1285;64796;-30
2022/03/12 02:33:28;;;;;;;8.80;5.90;;;;;;-10129.49;;;;105977;1287;65014;-30
2022/03/12 02:35:57;;;;;;;9.10;6.20;;;;;;-10005.19;;;;106184;1285;64760;-28
2022/03/12 02:38:28;;;;;;;7.90;5.50;;;;;;-10253.80;;;;106177;1287;64891;-39
2022/03/12 02:40:56;;;;;;;9.00;5.80;;;;;;-10253.80;;;;106201;1287;64773;-38
2022/03/12 02:43:28;;;;;;;8.50;5.90;;;;;;-10129.49;;;;106408;1285;64756;-29
2022/03/12 02:46:01;;;;;;;8.60;5.70;;;;;;-10005.19;;;;106401;1285;64728;-29
2022/03/12 02:48:28;;;;;;;7.90;5.80;;;;;;-10005.19;;;;106369;1285;64790;-29
2022/03/12 02:50:56;;;;;;;9.00;6.10;;;;;;-10129.49;;;;106377;1285;64782;-28
2022/03/12 02:53:23;;;;;;;9.10;6.50;;;;;;-10129.49;;;;106374;1285;64763;-29
2022/03/12 02:55:51;;;;;;;9.60;6.00;;;;;;-10005.19;;;;106383;1285;64807;-30
2022/03/12 02:58:18;;;;;;;8.80;6.00;;;;;;-10005.19;;;;105971;1288;64845;-30
2022/03/12 03:00:47;;;;;;;8.70;6.10;;;;;;-10253.80;;;;106351;1284;65028;-29
2022/03/12 03:03:15;;;;;;;10.40;6.80;;;;;;-10253.80;;;;106398;1284;64820;-40
2022/03/12 03:05:47;;;;;;;9.30;6.00;;;;;;-10253.80;;;;106432;1285;64899;-39
2022/03/12 03:08:21;;;;;;;8.60;6.00;;;;;;-10129.49;;;;106398;1285;64782;-38
2022/03/12 03:10:51;;;;;;;9.20;6.00;;;;;;-10253.80;;;;105942;1287;64830;-38
2022/03/12 03:13:20;;;;;;;8.20;5.40;;;;;;-10253.80;;;;106404;1285;64774;-38
2022/03/12 03:15:55;;;;;;;8.10;5.90;;;;;;-10253.80;;;;106188;1285;64773;-38
2022/03/12 03:18:26;;;;;;;8.60;6.00;;;;;;-10378.10;;;;106370;1285;65502;-38
2022/03/12 03:20:55;;;;;;;8.40;5.80;;;;;;-10253.80;;;;106391;1285;64789;-37
2022/03/12 03:23:25;;;;;;;7.80;5.50;;;;;;-10378.10;;;;106396;1285;64896;-30
2022/03/12 03:25:52;;;;;;;8.80;5.80;;;;;;-10005.19;;;;106372;1285;64738;-29
2022/03/12 03:28:20;;;;;;;8.80;6.50;;;;;;-10378.10;;;;106410;1285;64990;-39
2022/03/12 03:30:47;;;;;;;8.80;6.10;;;;;;-10129.49;;;;105978;1288;64784;-39
2022/03/12 03:33:19;;;;;;;9.10;6.20;;;;;;-10502.40;;;;106383;1285;64879;-39
2022/03/12 03:35:48;;;;;;;9.00;6.20;;;;;;-10253.80;;;;106160;1285;64767;-37
2022/03/12 03:38:17;;;;;;;8.10;5.80;;;;;;-10129.49;;;;106431;1285;64927;-29
2022/03/12 03:40:45;;;;;;;8.80;6.00;;;;;;-10005.19;;;;106178;1285;65432;-30
2022/03/12 03:43:24;;;;;;;8.60;6.40;;;;;;-10129.49;;;;106395;1285;64776;-39
2022/03/12 03:45:56;;;;;;;8.60;6.20;;;;;;-10129.49;;;;106388;1285;64752;-39
2022/03/12 03:48:24;;;;;;;8.90;5.60;;;;;;-10129.49;;;;106449;1285;64782;-29
2022/03/12 03:50:54;;;;;;;9.10;6.30;;;;;;-10005.19;;;;106203;1287;64767;-29
2022/03/12 03:53:24;;;;;;;8.80;6.00;;;;;;-10253.80;;;;106411;1284;64925;-29
2022/03/12 03:55:54;;;;;;;8.80;5.90;;;;;;-10005.19;;;;106389;1285;64884;-29
2022/03/12 03:58:23;;;;;;;9.20;6.30;;;;;;-10253.80;;;;106069;1287;64881;-39
2022/03/12 04:00:59;;;;;;;8.60;5.60;;;;;;-10005.19;;;;106168;1285;64850;-47
2022/03/12 04:03:32;;;;;;;9.30;6.20;;;;;;-10129.49;;;;106391;1285;64915;-30
2022/03/12 04:06:04;;;;;;;8.10;5.60;;;;;;-10253.80;;;;106416;1285;64760;-44
2022/03/12 04:08:33;;;;;;;9.80;6.20;;;;;;-10253.80;;;;106427;1285;65009;-39
2022/03/12 04:11:05;;;;;;;8.50;6.30;;;;;;-10129.49;;;;106402;1285;64794;-38
2022/03/12 04:13:34;;;;;;;10.00;6.30;;;;;;-10005.19;;;;106397;1285;64866;-30
2022/03/12 04:16:06;;;;;;;9.80;6.00;;;;;;-10378.10;;;;106397;1285;64904;-29
2022/03/12 04:18:35;;;;;;;9.80;6.20;;;;;;-10129.49;;;;106225;1286;64890;-29
2022/03/12 04:21:04;;;;;;;10.50;6.60;;;;;;-10005.19;;;;106401;1285;65559;-29
2022/03/12 04:23:31;;;;;;;9.40;6.20;;;;;;-10253.80;;;;105949;1288;64900;-39
2022/03/12 04:25:59;;;;;;;9.00;6.00;;;;;;-10253.80;;;;106130;1285;347469;-38
2022/03/12 04:28:32;;;;;;;9.70;6.40;;;;;;-10129.49;;;;106155;1285;64877;-39
2022/03/12 04:31:01;;;;;;;9.40;6.00;;;;;;-10129.49;;;;106430;1285;64869;-39
2022/03/12 04:33:29;;;;;;;9.80;6.50;;;;;;-10253.80;;;;106412;1285;65025;-45
2022/03/12 04:35:58;;;;;;;7.70;6.00;;;;;;-10253.80;;;;106370;1285;65008;-40
2022/03/12 04:38:27;;;;;;;10.30;7.10;;;;;;-10378.10;;;;105964;1288;64867;-30
2022/03/12 04:40:55;;;;;;;10.00;6.80;;;;;;-10378.10;;;;106193;1288;65463;-29
2022/03/12 04:43:29;;;;;;;9.90;6.80;;;;;;-10129.49;;;;106410;1284;64817;-29
2022/03/12 04:45:59;;;;;;;10.00;6.60;;;;;;-10253.80;;;;106391;1285;65704;-38
2022/03/12 04:48:28;;;;;;;9.80;6.80;;;;;;-10129.49;;;;106398;1285;64990;-39
2022/03/12 04:50:56;;;;;;;10.90;6.50;;;;;;-10253.80;;;;106357;1285;64793;-41
2022/03/12 04:53:24;;;;;;;11.30;7.30;;;;;;-10253.80;;;;106127;1285;64819;-38
2022/03/12 04:55:52;;;;;;;9.80;6.70;;;;;;-10005.19;;;;106430;1285;64893;-38
2022/03/12 04:58:20;;;;;;;9.20;6.40;;;;;;-10253.80;;;;106239;1285;64872;-30
2022/03/12 05:00:47;;;;;;;10.10;6.90;;;;;;-10253.80;;;;106373;1285;64995;-29
2022/03/12 05:03:19;;;;;;;8.80;6.00;;;;;;-10129.49;;;;106382;1285;65545;-29
2022/03/12 05:05:49;;;;;;;11.40;6.90;;;;;;-10253.80;;;;106357;1285;64908;-30
2022/03/12 05:08:28;;;;;;;9.50;6.50;;;;;;-10378.10;;;;106403;1285;64769;-38
2022/03/12 05:10:57;;;;;;;9.50;6.70;;;;;;-10253.80;;;;106361;1285;64753;-38
2022/03/12 05:13:25;;;;;;;8.80;6.20;;;;;;-10005.19;;;;106405;1285;64890;-39
2022/03/12 05:15:55;;;;;;;10.00;6.70;;;;;;-10005.19;;;;106369;1285;64773;-38
2022/03/12 05:18:24;;;;;;;10.20;7.30;;;;;;-10005.19;;;;106366;1285;64823;-30
2022/03/12 05:20:53;;;;;;;9.50;6.40;;;;;;-10129.49;;;;106400;1285;64780;-30
2022/03/12 05:23:20;;;;;;;8.60;6.40;;;;;;-10129.49;;;;106390;1285;64700;-38
2022/03/12 05:25:49;;;;;;;9.50;6.70;;;;;;-10253.80;;;;106167;1287;64895;-38
2022/03/12 05:28:25;;;;;;;9.70;6.60;;;;;;-10378.10;;;;106399;1285;64900;-39
2022/03/12 05:30:59;;;;;;;9.60;6.80;;;;;;-10253.80;;;;106361;1285;64977;-39
2022/03/12 05:33:27;;;;;;;10.70;7.20;;;;;;-10129.49;;;;106170;1286;66499;-39
2022/03/12 05:35:55;;;;;;;9.10;6.30;;;;;;-10005.19;;;;106215;1285;65011;-37
2022/03/12 05:38:24;;;;;;;10.00;6.50;;;;;;-10129.49;;;;106403;1285;64776;-39
2022/03/12 05:40:51;;;;;;;9.60;7.30;;;;;;-10253.80;;;;106422;1285;65323;-39
2022/03/12 05:43:19;;;;;;;9.40;6.70;;;;;;-10005.19;;;;106380;1285;64863;-38
2022/03/12 05:45:51;;;;;;;9.10;6.30;;;;;;-10129.49;;;;106422;1285;64906;-39
2022/03/12 05:48:20;;;;;;;10.40;7.10;;;;;;-10129.49;;;;106409;1285;65124;-37
2022/03/12 05:50:49;;;;;;;9.20;6.50;;;;;;-10253.80;;;;106378;1284;64878;-39
2022/03/12 05:53:19;;;;;;;9.40;6.60;;;;;;-10129.49;;;;106425;1285;64756;-29
2022/03/12 05:55:47;;;;;;;9.50;7.00;;;;;;-10005.19;;;;106382;1285;64856;-30
2022/03/12 05:58:18;;;;;;;9.80;6.70;;;;;;-10005.19;;;;106086;1285;64691;-39
2022/03/12 06:00:47;;;;;;;9.60;7.20;;;;;;-10378.10;;;;106406;1285;64973;-41
2022/03/12 06:03:15;;;;;;;9.60;6.80;;;;;;-10378.10;;;;106379;1285;64803;-29
2022/03/12 06:05:43;;;;;;;9.10;6.70;;;;;;-10253.80;;;;106187;1288;64902;-29
2022/03/12 06:08:20;;;;;;;10.20;6.60;;;;;;-10253.80;;;;106193;1285;65486;-37
2022/03/12 06:10:54;;;;;;;10.90;7.10;;;;;;-10129.49;;;;106391;1285;64902;-39
2022/03/12 06:13:27;;;;;;;9.90;6.90;;;;;;-10129.49;;;;106249;1286;64973;-38
2022/03/12 06:16:00;;;;;;;10.80;6.70;;;;;;-10005.19;;;;106161;1287;64890;-38
2022/03/12 06:18:32;;;;;;;11.40;7.30;;;;;;-10253.80;;;;106386;1285;64906;-28
2022/03/12 06:21:00;;;;;;;9.50;6.80;;;;;;-10253.80;;;;106190;1287;64935;-29
2022/03/12 06:23:28;;;;;;;9.00;6.10;;;;;;-10129.49;;;;106087;1287;64910;-39
2022/03/12 06:25:56;;;;;;;10.30;7.00;;;;;;-10129.49;;;;106197;1287;64903;-39
2022/03/12 06:28:23;;;;;;;9.40;6.60;;;;;;-10253.80;;;;106365;1285;65021;-37
2022/03/12 06:30:53;;;;;;;11.10;7.90;;;;;;-10129.49;;;;106207;1287;64798;-39
2022/03/12 06:33:22;;;;;;;10.70;6.80;;;;;;-10378.10;;;;106177;1287;64874;-38
2022/03/12 06:35:50;;;;;;;9.40;7.00;;;;;;-10005.19;;;;106113;1285;64902;-38
2022/03/12 06:38:18;;;;;;;10.10;7.20;;;;;;-10129.49;;;;106390;1285;64805;-29
2022/03/12 06:40:45;;;;;;;10.10;7.00;;;;;;-10129.49;;;;106178;1287;64784;-29
2022/03/12 06:43:19;;;;;;;9.00;7.00;;;;;;-10253.80;;;;106161;1287;64855;-29
2022/03/12 06:45:50;;;;;;;10.00;6.80;;;;;;-10253.80;;;;106377;1285;64760;-29
2022/03/12 06:48:17;;;;;;;10.80;7.30;;;;;;-10253.80;;;;106391;1285;64785;-39
2022/03/12 06:50:45;;;;;;;9.30;6.50;;;;;;-10129.49;;;;106172;1288;64861;-39
2022/03/12 06:53:14;;;;;;;9.50;6.80;;;;;;-10005.19;;;;106389;1285;64919;-29
2022/03/12 06:55:42;;;;;;;10.00;6.90;;;;;;-10253.80;;;;106202;1288;64893;-29
2022/03/12 06:58:10;;;;;;;10.20;7.50;;;;;;-10253.80;;;;106341;1285;64903;-30
2022/03/12 07:00:37;;;;;;;9.40;7.10;;;;;;-10129.49;;;;106414;1285;64894;-30
2022/03/12 07:03:05;;;;;;;11.10;7.30;;;;;;-10378.10;;;;106235;1287;65884;-29
2022/03/12 07:05:32;;;;;;;10.10;6.80;;;;;;-10005.19;;;;106324;1285;64929;-29
2022/03/12 07:07:59;;;;;;;11.00;7.80;;;;;;-10129.49;;;;106192;1287;64151;-29
2022/03/12 07:10:26;;;;;;;11.30;7.70;;;;;;-10129.49;;;;106170;1287;64817;-30
2022/03/12 07:12:54;;;;;;;10.90;7.00;;;;;;-10378.10;;;;106017;1287;65015;-38
2022/03/12 07:15:22;;;;;;;10.30;7.10;;;;;;-10129.49;;;;106238;1285;65577;-38
2022/03/12 07:17:50;;;;;;;10.90;7.30;;;;;;-10253.80;;;;106176;1287;64741;-38
2022/03/12 07:20:18;;;;;;;10.30;7.20;;;;;;-10005.19;;;;106234;1285;64797;-38
2022/03/12 07:22:46;;;;;;;9.40;7.30;;;;;;-10129.49;;;;106353;1285;64893;-39
2022/03/12 07:25:16;;;;;;;10.50;7.40;;;;;;-10253.80;;;;106395;1284;64826;-39
2022/03/12 07:27:44;;;;;;;9.80;7.30;;;;;;-10005.19;;;;106446;1285;64962;-38
2022/03/12 07:30:14;;;;;;;10.50;7.80;;;;;;-10005.19;;;;106346;1285;64893;-38
2022/03/12 07:32:44;;;;;;;10.70;7.20;;;;;;-10129.49;;;;106363;1285;64770;-42
2022/03/12 07:35:14;;;;;;;10.60;7.40;;;;;;-10005.19;;;;106425;1285;64983;-48
2022/03/12 07:37:44;;;;;;;11.10;8.00;;;;;;-10005.19;;;;106000;1286;65009;-39
2022/03/12 07:40:14;;;;;;;10.60;7.40;;;;;;-10005.19;;;;106380;1285;66621;-38
2022/03/12 07:42:42;;;;;;;10.60;7.50;;;;;;-10253.80;;;;106038;1285;64826;-38
2022/03/12 07:45:10;;;;;;;9.60;6.90;;;;;;-10129.49;;;;106379;1285;64823;-39
2022/03/12 07:47:38;;;;;;;11.30;7.60;;;;;;-10253.80;;;;106371;1285;64929;-39
2022/03/12 07:50:08;;;;;;;10.60;7.40;;;;;;-10378.10;;;;106389;1285;64857;-38
2022/03/12 07:52:36;;;;;;;10.20;7.70;;;;;;-10129.49;;;;106410;1285;64843;-38
2022/03/12 07:55:05;;;;;;;10.60;7.40;;;;;;-10253.80;;;;106380;1285;64782;-39
2022/03/12 07:57:33;;;;;;;10.60;7.40;;;;;;-10129.49;;;;106414;1285;64894;-30
2022/03/12 08:00:00;;;;;;;11.40;7.60;;;;;;-10129.49;;;;106405;1285;64905;-29
2022/03/12 08:02:27;;;;;;;10.50;7.30;;;;;;-10253.80;;;;106059;1287;64858;-29
2022/03/12 08:04:55;;;;;;;10.00;7.50;;;;;;-10129.49;;;;106380;1285;64843;-29
2022/03/12 08:07:24;;;;;;;10.40;7.20;;;;;;-10129.49;;;;106344;1285;64768;-29
2022/03/12 08:09:56;;;;;;;9.70;7.00;;;;;;-10253.80;;;;106375;1285;64798;-30
2022/03/12 08:12:25;;;;;;;9.70;7.20;;;;;;-10253.80;;;;106186;1287;64905;-29
2022/03/12 08:14:52;;;;;;;10.30;7.60;;;;;;-10502.40;;;;106405;1285;64882;-30
2022/03/12 08:17:20;;;;;;;10.90;7.20;;;;;;-10005.19;;;;106348;1285;64768;-29
2022/03/12 08:19:48;;;;;;;9.30;7.10;;;;;;-10129.49;;;;106371;1285;64917;-30
2022/03/12 08:22:16;;;;;;;10.50;7.20;;;;;;-10129.49;;;;106392;1285;64941;-29
2022/03/12 08:24:43;;;;;;;10.10;6.90;;;;;;-10253.80;;;;106351;1285;64872;-29
2022/03/12 08:27:13;;;;;;;10.50;7.40;;;;;;-10005.19;;;;106380;1285;64774;-38
2022/03/12 08:29:43;;;;;;;10.60;7.20;;;;;;-10253.80;;;;105945;1288;64753;-38
2022/03/12 08:32:12;;;;;;;10.00;6.80;;;;;;-10129.49;;;;106339;1285;64833;-30
2022/03/12 08:34:41;;;;;;;10.40;7.30;;;;;;-10253.80;;;;106057;1287;64887;-31
2022/03/12 08:37:09;;;;;;;12.00;7.30;;;;;;-10005.19;;;;106075;1285;64810;-38
2022/03/12 08:39:37;;;;;;;9.70;7.30;;;;;;-10129.49;;;;105991;1288;64313;-38
2022/03/12 08:42:05;;;;;;;11.00;7.70;;;;;;-10129.49;;;;106348;1285;64747;-29
2022/03/12 08:44:32;;;;;;;9.80;7.20;;;;;;-10129.49;;;;106055;1287;64779;-33
2022/03/12 08:47:00;;;;;;;10.40;7.00;;;;;;-10253.80;;;;106223;1288;64892;-38
2022/03/12 08:49:27;;;;;;;9.20;6.50;;;;;;-10253.80;;;;106160;1288;64803;-39
2022/03/12 08:51:54;;;;;;;9.70;6.20;;;;;;-10253.80;;;;106229;1285;64786;-29
2022/03/12 08:54:22;;;;;;;9.60;6.60;;;;;;-10129.49;;;;106242;1287;64746;-29
2022/03/12 08:56:49;;;;;;;11.30;6.80;;;;;;-10129.49;;;;106360;1285;64851;-32
2022/03/12 08:59:19;;;;;;;9.50;6.50;;;;;;-10253.80;;;;106039;1287;64917;-30
2022/03/12 09:01:47;;;;;;;10.70;6.50;;;;;;-10129.49;;;;106201;1285;64844;-29
2022/03/12 09:04:15;;;;;;;11.60;7.10;;;;;;-10378.10;;;;106402;1285;64774;-30
2022/03/12 09:06:43;;;;;;;10.80;6.40;;;;;;-10129.49;;;;106252;1287;64919;-29
2022/03/12 09:09:11;;;;;;;11.20;6.60;;;;;;-10129.49;;;;106373;1285;64774;-34
2022/03/12 09:11:39;;;;;;;8.90;6.10;;;;;;-10129.49;;;;106341;1285;64890;-29
2022/03/12 09:14:07;;;;;;;10.50;6.60;;;;;;-10253.80;;;;106360;1285;64787;-29
2022/03/12 09:16:36;;;;;;;8.90;6.20;;;;;;-10005.19;;;;106087;1286;64788;-37
2022/03/12 09:19:04;;;;;;;10.40;6.00;;;;;;-10005.19;;;;106099;1286;64905;-40
2022/03/12 09:21:32;;;;;;;8.40;6.00;;;;;;-10129.49;;;;106378;1285;64797;-38
2022/03/12 09:23:59;;;;;;;10.50;6.20;;;;;;-10005.19;;;;106034;1286;64831;-29
2022/03/12 09:26:26;;;;;;;11.10;5.90;;;;;;-10129.49;;;;106168;1288;64750;-29
2022/03/12 09:28:55;;;;;;;9.20;6.30;;;;;;-10253.80;;;;105995;1287;64877;-29
2022/03/12 09:31:23;;;;;;;8.50;5.30;;;;;;-10253.80;;;;106348;1285;64839;-27
2022/03/12 09:33:50;;;;;;;8.00;5.10;;;;;;-10129.49;;;;106367;1285;64782;-39
2022/03/12 09:36:18;;;;;;;11.10;6.20;;;;;;-10129.49;;;;105961;1288;64939;-38
2022/03/12 09:38:46;;;;;;;8.00;5.40;;;;;;-10253.80;;;;106260;1285;64811;-38
2022/03/12 09:41:14;;;;;;;8.80;5.40;;;;;;-10005.19;;;;105954;1288;64872;-39
2022/03/12 09:43:42;;;;;;;8.70;5.20;;;;;;-10378.10;;;;106339;1285;64883;-30
2022/03/12 09:46:09;;;;;;;7.90;5.50;;;;;;-10129.49;;;;106243;1285;64875;-30
2022/03/12 09:48:37;;;;;;;8.60;5.40;;;;;;-10253.80;;;;106320;1285;64786;-29
2022/03/12 09:51:04;;;;;;;7.80;5.10;;;;;;-10378.10;;;;106220;1287;65000;-29
2022/03/12 09:53:33;;;;;;;8.20;5.70;;;;;;-10005.19;;;;106377;1285;64755;-31
2022/03/12 09:56:01;;;;;;;7.80;5.10;;;;;;-10253.80;;;;105990;1288;64899;-29
2022/03/12 09:58:29;;;;;;;9.10;5.20;;;;;;-10253.80;;;;106334;1285;64877;-38
2022/03/12 10:00:56;;;;;;;8.40;5.40;;;;;;-10378.10;;;;106237;1285;64864;-39
2022/03/12 10:03:23;;;;;;;8.50;5.40;;;;;;-10129.49;;;;106333;1285;64752;-38
2022/03/12 10:05:51;;;;;;;7.80;5.00;;;;;;-10253.80;;;;106189;1287;65003;-43
2022/03/12 10:08:18;;;;;;;7.20;4.70;;;;;;-10129.49;;;;105685;1288;64862;-30
2022/03/12 10:10:45;;;;;;;7.90;4.80;;;;;;-10253.80;;;;106295;1285;64781;-39
2022/03/12 10:13:13;;;;;;;8.80;5.00;;;;;;-10005.19;;;;106234;1285;64800;-28
2022/03/12 10:15:40;;;;;;;7.90;5.00;;;;;;-10005.19;;;;106308;1285;64889;-30
2022/03/12 10:18:07;;;;;;;8.90;4.80;;;;;;-10129.49;;;;106349;1285;64889;-38
2022/03/12 10:20:35;;;;;;;7.90;5.10;;;;;;-10129.49;;;;106183;1287;64925;-39
2022/03/12 10:23:03;;;;;;;7.40;4.70;;;;;;-10378.10;;;;106314;1285;63632;-29
2022/03/12 10:25:30;;;;;;;7.40;4.60;;;;;;-10253.80;;;;106310;1285;64792;-30
2022/03/12 10:27:57;;;;;;;8.90;4.70;;;;;;-10129.49;;;;106214;1285;64917;-40
2022/03/12 10:30:25;;;;;;;7.40;4.30;;;;;;-10129.49;;;;106343;1285;64774;-38
2022/03/12 10:32:52;;;;;;;6.80;4.60;;;;;;-10253.80;;;;106231;1287;64782;-29
2022/03/12 10:35:22;;;;;;;7.50;4.50;;;;;;-10129.49;;;;106304;1285;64803;-38
2022/03/12 10:37:53;;;;;;;9.20;5.40;;;;;;-10253.80;;;;106350;1285;64751;-38
2022/03/12 10:40:25;;;;;;;7.30;4.70;;;;;;-10129.49;;;;106202;1287;64747;-39
2022/03/12 10:42:59;;;;;;;6.80;4.20;;;;;;-10378.10;;;;106228;1287;64860;-39
2022/03/12 10:45:31;;;;;;;8.30;4.60;;;;;;-10253.80;;;;106219;1287;64809;-38
2022/03/12 10:48:03;;;;;;;6.80;4.20;;;;;;-10253.80;;;;106201;1288;64780;-30
2022/03/12 10:50:37;;;;;;;6.90;4.30;;;;;;-10129.49;;;;106061;1287;64789;-30
2022/03/12 10:53:06;;;;;;;7.70;4.30;;;;;;-10129.49;;;;106218;1287;64942;-39
2022/03/12 10:55:41;;;;;;;8.70;4.60;;;;;;-10253.80;;;;106256;1287;64778;-39
2022/03/12 10:58:26;;;;;;;7.50;4.90;;;;;;-10129.49;;;;106058;1287;65633;-39
2022/03/12 11:01:00;;;;;;;6.70;4.10;;;;;;-10129.49;;;;105949;1288;64866;-30
2022/03/12 11:03:31;;;;;;;7.40;4.30;;;;;;-10129.49;;;;106034;1287;64996;-34
2022/03/12 11:05:59;;;;;;;7.70;4.50;;;;;;-10129.49;;;;106027;1287;64750;-30
2022/03/12 11:08:34;;;;;;;8.30;4.80;;;;;;-10378.10;;;;106225;1287;64896;-39
2022/03/12 11:11:14;;;;;;;7.00;4.40;;;;;;-10005.19;;;;106249;1287;65946;-37
2022/03/12 11:13:49;;;;;;;7.70;4.30;;;;;;-10253.80;;;;106241;1287;64777;-29
2022/03/12 11:16:25;;;;;;;8.30;4.90;;;;;;-10129.49;;;;106231;1287;64984;-30
2022/03/12 11:18:52;;;;;;;7.20;4.10;;;;;;-10005.19;;;;106007;1287;64778;-42
2022/03/12 11:21:43;;;;;;;6.00;4.00;;;;;;-10253.80;;;;106262;1287;64830;-45
2022/03/12 11:24:23;;;;;;;6.60;4.30;;;;;;-10253.80;;;;106235;1287;65877;-38
2022/03/12 11:26:55;;;;;;;7.70;4.10;;;;;;-10378.10;;;;106203;1287;64893;-30
2022/03/12 11:29:26;;;;;;;6.90;4.50;;;;;;-10129.49;;;;106028;1287;64871;-29
2022/03/12 11:32:05;;;;;;;7.50;4.50;;;;;;-10129.49;;;;106242;1287;64714;-31
2022/03/12 11:34:38;;;;;;;7.60;4.50;;;;;;-10129.49;;;;106229;1287;64917;-38
2022/03/12 11:37:14;;;;;;;7.70;4.80;;;;;;-10129.49;;;;106281;1287;66320;-29
2022/03/12 11:39:47;;;;;;;6.90;4.00;;;;;;-10253.80;;;;106249;1288;64778;-29
2022/03/12 11:42:18;;;;;;;7.20;4.60;;;;;;-10129.49;;;;106126;1287;65534;-32
2022/03/12 11:44:55;;;;;;;8.50;4.50;;;;;;-10129.49;;;;106318;1285;64912;-33
2022/03/12 11:47:26;;;;;;;7.60;4.40;;;;;;-10378.10;;;;106348;1285;64896;-39
2022/03/12 11:49:56;;;;;;;8.00;4.40;;;;;;-10005.19;;;;106029;1287;64907;-39
2022/03/12 11:52:24;;;;;;;7.40;4.70;;;;;;-10253.80;;;;106338;1285;64871;-38
2022/03/12 11:54:54;;;;;;;8.00;4.60;;;;;;-10253.80;;;;106266;1288;64791;-38
2022/03/12 11:57:30;;;;;;;7.30;4.60;;;;;;-10129.49;;;;106239;1287;64992;-40
2022/03/12 11:59:58;;;;;;;6.70;4.30;;;;;;-10129.49;;;;106249;1287;64794;-42
2022/03/12 12:02:32;;;;;;;8.30;4.70;;;;;;-10378.10;;;;106255;1287;64861;-39
2022/03/12 12:05:04;;;;;;;8.10;4.60;;;;;;-10129.49;;;;106084;1287;65215;-30
2022/03/12 12:07:38;;;;;;;7.80;4.80;;;;;;-10129.49;;;;106080;1287;65017;-31
2022/03/12 12:10:14;;;;;;;8.70;4.60;;;;;;-10502.40;;;;106008;1287;64895;-30
2022/03/12 12:12:46;;;;;;;7.80;4.30;;;;;;-10253.80;;;;106272;1288;63633;-30
2022/03/12 12:15:22;;;;;;;7.90;4.10;;;;;;-10502.40;;;;106251;1287;64896;-39
2022/03/12 12:17:51;;;;;;;9.10;4.40;;;;;;-10129.49;;;;105692;1290;64811;-39
2022/03/12 12:20:21;;;;;;;6.60;4.00;;;;;;-10253.80;;;;105851;1287;64763;-38
2022/03/12 12:22:49;;;;;;;7.20;4.10;;;;;;-10129.49;;;;106230;1287;64759;-29
2022/03/12 12:25:18;;;;;;;6.90;4.40;;;;;;-10253.80;;;;105868;1287;307683;-28
2022/03/12 12:27:51;;;;;;;6.90;4.40;;;;;;-10253.80;;;;106206;1287;64922;-38
2022/03/12 12:30:38;;;;;;;7.40;4.80;;;;;;-10378.10;;;;106250;1287;65003;-38
2022/03/12 12:33:16;;;;;;;7.50;4.90;;;;;;-10502.40;;;;105810;1290;64786;-38
2022/03/12 12:35:49;;;;;;;7.70;4.20;;;;;;-10129.49;;;;106195;1287;64716;-32
2022/03/12 12:38:20;;;;;;;8.30;4.60;;;;;;-10253.80;;;;106031;1287;64778;-39
2022/03/12 12:40:52;;;;;;;8.00;4.70;;;;;;-10129.49;;;;106221;1287;65886;-41
2022/03/12 12:43:23;;;;;;;7.60;4.20;;;;;;-10129.49;;;;106045;1287;64788;-48
2022/03/12 12:45:54;;;;;;;7.60;4.40;;;;;;-10129.49;;;;105908;1288;64781;-46
2022/03/12 12:48:48;;;;;;;7.20;4.70;;;;;;-10129.49;;;;106181;1287;64806;-39
2022/03/12 12:51:21;;;;;;;8.40;5.20;;;;;;-10005.19;;;;106057;1287;64985;-31
2022/03/12 12:53:52;;;;;;;;;;;;;;-10129.49;;;;106244;1287;66670;-38
2022/03/12 12:56:40;;;;;;;8.40;4.90;;;;;;-10253.80;;;;106040;1287;65264;-40
2022/03/12 12:59:10;;;;;;;8.40;5.00;;;;;;-10253.80;;;;106059;1288;66031;-41